sensor_id;sensor_type;location;lat;lon;timestamp;pressure;altitude;pressure_sealevel;temperature;humidity
38054;BME280;23859;50.672;7.164;2023-05-02T00:01:50;59241.16;;;11.15;100.00
38054;BME280;23859;50.672;7.164;2023-05-02T00:04:17;59245.94;;;11.15;100.00
38054;BME280;23859;50.672;7.164;2023-05-02T00:06:43;59240.66;;;11.15;100.00
38054;BME280;23859;50.672;7.164;2023-05-02T00:09:11;59188.88;;;10.57;100.00
38054;BME280;23859;50.672;7.164;2023-05-02T00:11:37;59247.72;;;11.19;100.00
38054;BME280;23859;50.672;7.164;2023-05-02T00:14:03;59244.13;;;11.18;100.00
38054;BME280;23859;50.672;7.164;2023-05-02T00:16:30;59247.72;;;11.19;100.00
38054;BME280;23859;50.672;7.164;2023-05-02T00:18:56;59258.72;;;11.27;100.00
38054;BME280;23859;50.672;7.164;2023-05-02T00:21:22;59266.47;;;11.30;100.00
38054;BME280;23859;50.672;7.164;2023-05-02T00:23:49;59261.69;;;11.30;100.00
38054;BME280;23859;50.672;7.164;2023-05-02T00:26:15;59264.81;;;11.31;100.00
38054;BME280;23859;50.672;7.164;2023-05-02T00:28:41;59261.84;;;11.28;100.00
38054;BME280;23859;50.672;7.164;2023-05-02T00:31:07;59241.66;;;11.16;100.00
38054;BME280;23859;50.672;7.164;2023-05-02T00:33:34;59243.13;;;11.17;100.00
38054;BME280;23859;50.672;7.164;2023-05-02T00:36:00;59241.16;;;11.15;100.00
38054;BME280;23859;50.672;7.164;2023-05-02T00:38:26;59249.38;;;11.18;100.00
38054;BME280;23859;50.672;7.164;2023-05-02T00:40:52;59239.38;;;11.11;100.00
38054;BME280;23859;50.672;7.164;2023-05-02T00:43:18;59239.53;;;11.08;100.00
38054;BME280;23859;50.672;7.164;2023-05-02T00:45:45;59237.56;;;11.06;100.00
38054;BME280;23859;50.672;7.164;2023-05-02T00:48:12;59234.94;;;11.06;100.00
38054;BME280;23859;50.672;7.164;2023-05-02T00:50:40;59242.66;;;11.09;100.00
38054;BME280;23859;50.672;7.164;2023-05-02T00:53:07;59248.06;;;11.14;100.00
38054;BME280;23859;50.672;7.164;2023-05-02T00:55:34;59248.91;;;11.18;100.00
38054;BME280;23859;50.672;7.164;2023-05-02T00:58:02;59256.13;;;11.20;100.00
38054;BME280;23859;50.672;7.164;2023-05-02T01:12:10;59276.44;;;11.45;100.00
38054;BME280;23859;50.672;7.164;2023-05-02T01:14:43;59274.63;;;11.49;100.00
38054;BME280;23859;50.672;7.164;2023-05-02T01:17:13;59284.16;;;11.56;100.00
38054;BME280;23859;50.672;7.164;2023-05-02T01:19:50;59289.09;;;11.61;100.00
38054;BME280;23859;50.672;7.164;2023-05-02T01:22:18;59290.75;;;11.60;100.00
38054;BME280;23859;50.672;7.164;2023-05-02T01:24:59;59295.34;;;11.62;100.00
38054;BME280;23859;50.672;7.164;2023-05-02T01:30:31;59296.00;;;11.68;100.00
38054;BME280;23859;50.672;7.164;2023-05-02T01:33:00;59295.50;;;11.67;100.00
38054;BME280;23859;50.672;7.164;2023-05-02T01:35:27;59298.63;;;11.68;100.00
38054;BME280;23859;50.672;7.164;2023-05-02T01:37:57;59304.53;;;11.74;100.00
38054;BME280;23859;50.672;7.164;2023-05-02T01:40:25;59307.13;;;11.82;100.00
38054;BME280;23859;50.672;7.164;2023-05-02T01:42:52;59313.41;;;11.83;100.00
38054;BME280;23859;50.672;7.164;2023-05-02T01:45:21;59319.31;;;11.89;100.00
38054;BME280;23859;50.672;7.164;2023-05-02T01:47:49;59320.13;;;11.92;100.00
38054;BME280;23859;50.672;7.164;2023-05-02T01:50:19;59342.81;;;12.07;100.00
38054;BME280;23859;50.672;7.164;2023-05-02T01:52:48;59350.84;;;12.20;100.00
38054;BME280;23859;50.672;7.164;2023-05-02T01:55:17;59370.53;;;12.40;100.00
38054;BME280;23859;50.672;7.164;2023-05-02T01:57:45;59368.38;;;12.49;100.00
38054;BME280;23859;50.672;7.164;2023-05-02T02:00:12;59391.41;;;12.59;100.00
38054;BME280;23859;50.672;7.164;2023-05-02T02:02:41;59407.38;;;12.72;100.00
38054;BME280;23859;50.672;7.164;2023-05-02T02:05:09;59412.63;;;12.80;100.00
38054;BME280;23859;50.672;7.164;2023-05-02T02:07:35;59415.91;;;12.86;100.00
38054;BME280;23859;50.672;7.164;2023-05-02T02:10:02;59418.72;;;12.83;100.00
38054;BME280;23859;50.672;7.164;2023-05-02T02:12:35;59420.34;;;12.90;100.00
38054;BME280;23859;50.672;7.164;2023-05-02T02:15:16;59423.44;;;12.99;100.00
38054;BME280;23859;50.672;7.164;2023-05-02T02:17:48;59427.72;;;12.98;100.00
38054;BME280;23859;50.672;7.164;2023-05-02T02:20:21;59421.50;;;12.89;100.00
38054;BME280;23859;50.672;7.164;2023-05-02T02:22:48;59415.91;;;12.86;100.00
38054;BME280;23859;50.672;7.164;2023-05-02T02:25:15;59418.38;;;12.88;100.00
38054;BME280;23859;50.672;7.164;2023-05-02T02:27:42;59416.41;;;12.86;100.00
38054;BME280;23859;50.672;7.164;2023-05-02T02:30:09;59418.22;;;12.91;100.00
38054;BME280;23859;50.672;7.164;2023-05-02T02:32:35;59412.75;;;12.93;100.00
38054;BME280;23859;50.672;7.164;2023-05-02T02:35:02;59413.91;;;12.92;100.00
38054;BME280;23859;50.672;7.164;2023-05-02T02:37:44;59416.25;;;12.81;100.00
38054;BME280;23859;50.672;7.164;2023-05-02T02:49:17;59419.69;;;12.84;100.00
38054;BME280;23859;50.672;7.164;2023-05-02T02:51:55;59413.75;;;12.86;100.00
38054;BME280;23859;50.672;7.164;2023-05-02T02:54:59;59409.63;;;12.85;100.00
38054;BME280;23859;50.672;7.164;2023-05-02T02:57:58;59408.00;;;12.78;100.00
38054;BME280;23859;50.672;7.164;2023-05-02T03:00:26;59406.19;;;12.73;100.00
38054;BME280;23859;50.672;7.164;2023-05-02T03:02:53;59398.78;;;12.74;100.00
38054;BME280;23859;50.672;7.164;2023-05-02T03:05:21;59385.66;;;12.58;100.00
38054;BME280;23859;50.672;7.164;2023-05-02T03:07:48;59402.44;;;12.67;100.00
38054;BME280;23859;50.672;7.164;2023-05-02T03:10:14;59394.50;;;12.67;100.00
38054;BME280;23859;50.672;7.164;2023-05-02T03:12:40;59405.53;;;12.75;100.00
38054;BME280;23859;50.672;7.164;2023-05-02T03:18:29;59385.97;;;12.61;100.00
38054;BME280;23859;50.672;7.164;2023-05-02T03:20:55;59406.69;;;12.74;100.00
38054;BME280;23859;50.672;7.164;2023-05-02T03:23:21;59394.22;;;12.64;100.00
38054;BME280;23859;50.672;7.164;2023-05-02T03:25:47;59397.47;;;12.70;100.00
38054;BME280;23859;50.672;7.164;2023-05-02T03:28:13;59388.41;;;12.63;100.00
38054;BME280;23859;50.672;7.164;2023-05-02T03:30:39;59392.56;;;12.65;100.00
38054;BME280;23859;50.672;7.164;2023-05-02T03:33:06;59393.53;;;12.66;100.00
38054;BME280;23859;50.672;7.164;2023-05-02T03:35:33;59396.34;;;12.63;100.00
38054;BME280;23859;50.672;7.164;2023-05-02T03:37:59;59381.03;;;12.56;100.00
38054;BME280;23859;50.672;7.164;2023-05-02T03:40:27;59384.84;;;12.55;100.00
38054;BME280;23859;50.672;7.164;2023-05-02T03:42:53;59386.00;;;12.53;100.00
38054;BME280;23859;50.672;7.164;2023-05-02T03:45:19;59386.66;;;12.51;100.00
38054;BME280;23859;50.672;7.164;2023-05-02T03:47:45;59392.72;;;12.62;100.00
38054;BME280;23859;50.672;7.164;2023-05-02T03:50:11;59383.66;;;12.56;100.00
38054;BME280;23859;50.672;7.164;2023-05-02T03:52:37;59380.41;;;12.50;100.00
38054;BME280;23859;50.672;7.164;2023-05-02T03:55:04;59385.31;;;12.55;100.00
38054;BME280;23859;50.672;7.164;2023-05-02T03:57:32;59383.38;;;12.53;100.00
38054;BME280;23859;50.672;7.164;2023-05-02T03:59:58;59379.25;;;12.52;100.00
38054;BME280;23859;50.672;7.164;2023-05-02T04:02:25;59381.53;;;12.57;100.00
38054;BME280;23859;50.672;7.164;2023-05-02T04:04:51;59391.91;;;12.59;100.00
38054;BME280;23859;50.672;7.164;2023-05-02T04:07:17;59386.13;;;12.59;100.00
38054;BME280;23859;50.672;7.164;2023-05-02T04:09:46;59375.28;;;12.48;100.00
38054;BME280;23859;50.672;7.164;2023-05-02T04:12:15;59372.16;;;12.47;100.00
38054;BME280;23859;50.672;7.164;2023-05-02T04:14:41;59383.72;;;12.48;100.00
38054;BME280;23859;50.672;7.164;2023-05-02T04:17:07;59384.69;;;12.49;100.00
38054;BME280;23859;50.672;7.164;2023-05-02T04:19:34;59389.44;;;12.57;100.00
38054;BME280;23859;50.672;7.164;2023-05-02T04:22:00;59370.19;;;12.45;100.00
38054;BME280;23859;50.672;7.164;2023-05-02T04:24:27;59360.69;;;12.30;100.00
38054;BME280;23859;50.672;7.164;2023-05-02T04:26:53;59355.41;;;12.30;100.00
38054;BME280;23859;50.672;7.164;2023-05-02T04:29:19;59364.28;;;12.39;100.00
38054;BME280;23859;50.672;7.164;2023-05-02T04:31:45;59357.06;;;12.29;100.00
38054;BME280;23859;50.672;7.164;2023-05-02T04:34:11;59362.16;;;12.32;100.00
38054;BME280;23859;50.672;7.164;2023-05-02T04:36:37;59358.38;;;12.33;100.00
38054;BME280;23859;50.672;7.164;2023-05-02T04:39:03;59360.69;;;12.30;100.00
38054;BME280;23859;50.672;7.164;2023-05-02T04:41:29;59340.94;;;12.18;100.00
38054;BME280;23859;50.672;7.164;2023-05-02T04:43:55;59338.34;;;12.10;100.00
38054;BME280;23859;50.672;7.164;2023-05-02T04:46:21;59342.94;;;12.12;100.00
38054;BME280;23859;50.672;7.164;2023-05-02T04:48:47;59342.94;;;12.12;100.00
38054;BME280;23859;50.672;7.164;2023-05-02T04:51:13;59343.59;;;12.18;100.00
38054;BME280;23859;50.672;7.164;2023-05-02T04:53:40;59348.84;;;12.18;100.00
38054;BME280;23859;50.672;7.164;2023-05-02T04:56:06;59347.06;;;12.14;100.00
38054;BME280;23859;50.672;7.164;2023-05-02T04:58:32;59345.22;;;12.17;100.00
38054;BME280;23859;50.672;7.164;2023-05-02T05:01:00;59352.13;;;12.24;100.00
38054;BME280;23859;50.672;7.164;2023-05-02T05:03:27;59343.09;;;12.18;100.00
38054;BME280;23859;50.672;7.164;2023-05-02T05:05:57;59359.69;;;12.29;100.00
38054;BME280;23859;50.672;7.164;2023-05-02T05:08:23;59348.50;;;12.23;100.00
38054;BME280;23859;50.672;7.164;2023-05-02T05:10:50;59352.63;;;12.25;100.00
38054;BME280;23859;50.672;7.164;2023-05-02T05:13:16;59353.78;;;12.23;100.00
38054;BME280;23859;50.672;7.164;2023-05-02T05:15:42;59368.91;;;12.33;100.00
38054;BME280;23859;50.672;7.164;2023-05-02T05:18:09;59372.38;;;12.37;100.00
38054;BME280;23859;50.672;7.164;2023-05-02T05:20:35;59360.19;;;12.30;100.00
38054;BME280;23859;50.672;7.164;2023-05-02T05:23:01;59361.84;;;12.29;100.00
38054;BME280;23859;50.672;7.164;2023-05-02T05:25:27;59358.22;;;12.28;100.00
38054;BME280;23859;50.672;7.164;2023-05-02T05:27:53;59353.13;;;12.25;100.00
38054;BME280;23859;50.672;7.164;2023-05-02T05:30:22;59350.84;;;12.20;100.00
38054;BME280;23859;50.672;7.164;2023-05-02T05:32:48;59357.41;;;12.24;100.00
38054;BME280;23859;50.672;7.164;2023-05-02T05:35:14;59369.56;;;12.39;100.00
38054;BME280;23859;50.672;7.164;2023-05-02T05:37:40;59367.09;;;12.37;100.00
38054;BME280;23859;50.672;7.164;2023-05-02T05:40:07;59369.91;;;12.34;100.00
38054;BME280;23859;50.672;7.164;2023-05-02T05:42:34;59369.56;;;12.39;100.00
38054;BME280;23859;50.672;7.164;2023-05-02T05:45:00;59370.53;;;12.40;100.00
38054;BME280;23859;50.672;7.164;2023-05-02T05:47:26;59363.78;;;12.39;100.00
38054;BME280;23859;50.672;7.164;2023-05-02T05:49:53;59369.72;;;12.37;100.00
38054;BME280;23859;50.672;7.164;2023-05-02T05:52:19;59363.97;;;12.28;100.00
38054;BME280;23859;50.672;7.164;2023-05-02T05:54:45;59351.81;;;12.21;100.00
38054;BME280;23859;50.672;7.164;2023-05-02T05:57:11;59347.22;;;12.19;100.00
38054;BME280;23859;50.672;7.164;2023-05-02T05:59:37;59346.41;;;12.16;100.00
38054;BME280;23859;50.672;7.164;2023-05-02T06:02:04;59347.88;;;12.17;100.00
38054;BME280;23859;50.672;7.164;2023-05-02T06:04:30;59344.56;;;12.19;100.00
38054;BME280;23859;50.672;7.164;2023-05-02T06:06:57;59356.41;;;12.23;100.00
38054;BME280;23859;50.672;7.164;2023-05-02T06:09:23;59369.56;;;12.39;100.00
38054;BME280;23859;50.672;7.164;2023-05-02T06:11:49;59375.97;;;12.46;100.00
38054;BME280;23859;50.672;7.164;2023-05-02T06:14:15;59397.16;;;12.67;100.00
38054;BME280;23859;50.672;7.164;2023-05-02T06:16:41;59384.34;;;12.54;100.00
38054;BME280;23859;50.672;7.164;2023-05-02T06:19:08;59387.31;;;12.57;100.00
38054;BME280;23859;50.672;7.164;2023-05-02T06:21:36;59384.66;;;12.57;100.00
38054;BME280;23859;50.672;7.164;2023-05-02T06:24:02;59380.41;;;12.50;100.00
38054;BME280;23859;50.672;7.164;2023-05-02T06:26:29;59391.75;;;12.62;100.00
38054;BME280;23859;50.672;7.164;2023-05-02T06:28:55;59374.81;;;12.47;100.00
38054;BME280;23859;50.672;7.164;2023-05-02T06:31:21;59369.53;;;12.47;100.00
38054;BME280;23859;50.672;7.164;2023-05-02T06:33:47;59362.63;;;12.40;100.00
38054;BME280;23859;50.672;7.164;2023-05-02T06:36:13;59382.03;;;12.57;100.00
38054;BME280;23859;50.672;7.164;2023-05-02T06:38:39;59383.38;;;12.53;100.00
38054;BME280;23859;50.672;7.164;2023-05-02T06:41:05;59401.28;;;12.68;100.00
38054;BME280;23859;50.672;7.164;2023-05-02T06:43:31;59396.50;;;12.69;100.00
38054;BME280;23859;50.672;7.164;2023-05-02T06:45:59;59415.91;;;12.86;100.00
38054;BME280;23859;50.672;7.164;2023-05-02T06:48:25;59410.13;;;12.85;100.00
38054;BME280;23859;50.672;7.164;2023-05-02T06:50:51;59407.50;;;12.77;100.00
38054;BME280;23859;50.672;7.164;2023-05-02T06:53:18;59410.63;;;12.78;100.00
38054;BME280;23859;50.672;7.164;2023-05-02T06:55:45;59405.38;;;12.78;100.00
38054;BME280;23859;50.672;7.164;2023-05-02T06:58:13;59418.69;;;12.91;100.00
38054;BME280;23859;50.672;7.164;2023-05-02T07:00:39;59433.00;;;13.06;100.00
38054;BME280;23859;50.672;7.164;2023-05-02T07:03:05;59439.72;;;13.15;100.00
38054;BME280;23859;50.672;7.164;2023-05-02T07:05:31;59382.50;;;12.58;100.00
38054;BME280;23859;50.672;7.164;2023-05-02T07:07:57;59438.91;;;13.12;100.00
38054;BME280;23859;50.672;7.164;2023-05-02T07:10:24;59452.22;;;13.25;98.17
38054;BME280;23859;50.672;7.164;2023-05-02T07:12:50;59465.91;;;13.33;98.53
38054;BME280;23859;50.672;7.164;2023-05-02T07:15:16;59463.63;;;13.29;99.80
38054;BME280;23859;50.672;7.164;2023-05-02T07:17:42;59478.53;;;13.49;99.15
38054;BME280;23859;50.672;7.164;2023-05-02T07:20:10;59495.50;;;13.63;98.06
38054;BME280;23859;50.672;7.164;2023-05-02T07:22:37;59500.41;;;13.76;97.40
38054;BME280;23859;50.672;7.164;2023-05-02T07:25:03;59524.94;;;13.96;95.93
38054;BME280;23859;50.672;7.164;2023-05-02T07:27:29;59533.19;;;13.98;94.28
38054;BME280;23859;50.672;7.164;2023-05-02T07:29:56;59519.16;;;13.95;95.78
38054;BME280;23859;50.672;7.164;2023-05-02T07:32:22;59520.63;;;13.96;95.93
38054;BME280;23859;50.672;7.164;2023-05-02T07:34:49;59527.72;;;14.01;95.32
38054;BME280;23859;50.672;7.164;2023-05-02T07:37:19;59513.09;;;13.84;96.06
38054;BME280;23859;50.672;7.164;2023-05-02T07:39:45;59501.09;;;13.66;97.18
38054;BME280;23859;50.672;7.164;2023-05-02T07:42:11;59471.28;;;13.47;99.58
38054;BME280;23859;50.672;7.164;2023-05-02T07:44:37;59460.28;;;13.30;100.00
38054;BME280;23859;50.672;7.164;2023-05-02T07:47:03;59448.63;;;13.16;100.00
38054;BME280;23859;50.672;7.164;2023-05-02T07:49:30;59441.88;;;13.15;100.00
38054;BME280;23859;50.672;7.164;2023-05-02T07:51:56;59365.47;;;12.30;100.00
38054;BME280;23859;50.672;7.164;2023-05-02T07:54:22;59431.19;;;13.01;100.00
38054;BME280;23859;50.672;7.164;2023-05-02T07:56:51;59426.63;;;12.91;100.00
38054;BME280;23859;50.672;7.164;2023-05-02T07:59:17;59413.59;;;12.89;100.00
38054;BME280;23859;50.672;7.164;2023-05-02T08:01:43;59424.44;;;13.00;100.00
38054;BME280;23859;50.672;7.164;2023-05-02T08:04:09;59439.94;;;13.05;100.00
38054;BME280;23859;50.672;7.164;2023-05-02T08:06:36;59426.25;;;12.96;100.00
38054;BME280;23859;50.672;7.164;2023-05-02T08:09:02;59430.03;;;13.03;100.00
38054;BME280;23859;50.672;7.164;2023-05-02T08:11:28;59426.41;;;13.02;100.00
38054;BME280;23859;50.672;7.164;2023-05-02T08:13:55;59438.75;;;13.06;100.00
38054;BME280;23859;50.672;7.164;2023-05-02T08:16:21;59449.44;;;13.20;100.00
38054;BME280;23859;50.672;7.164;2023-05-02T08:18:47;59477.41;;;13.42;100.00
38054;BME280;23859;50.672;7.164;2023-05-02T08:21:13;59471.78;;;13.47;100.00
38054;BME280;23859;50.672;7.164;2023-05-02T08:23:40;59478.53;;;13.49;100.00
38054;BME280;23859;50.672;7.164;2023-05-02T08:26:06;59481.50;;;13.52;100.00
38054;BME280;23859;50.672;7.164;2023-05-02T08:28:32;59486.94;;;13.57;100.00
38054;BME280;23859;50.672;7.164;2023-05-02T08:30:58;59503.41;;;13.71;100.00
38054;BME280;23859;50.672;7.164;2023-05-02T08:33:25;59491.50;;;13.67;100.00
38054;BME280;23859;50.672;7.164;2023-05-02T08:35:51;59502.53;;;13.76;100.00
38054;BME280;23859;50.672;7.164;2023-05-02T08:38:17;59489.72;;;13.63;100.00
38054;BME280;23859;50.672;7.164;2023-05-02T08:40:44;59490.88;;;13.61;100.00
38054;BME280;23859;50.672;7.164;2023-05-02T08:43:11;59475.75;;;13.43;100.00
38054;BME280;23859;50.672;7.164;2023-05-02T08:45:42;59489.91;;;13.60;100.00
38054;BME280;23859;50.672;7.164;2023-05-02T08:48:12;59480.34;;;13.53;100.00
38054;BME280;23859;50.672;7.164;2023-05-02T08:50:42;59501.56;;;13.75;99.47
38054;BME280;23859;50.672;7.164;2023-05-02T08:53:11;59529.53;;;14.05;98.84
38054;BME280;23859;50.672;7.164;2023-05-02T08:55:40;59557.69;;;14.34;97.62
38054;BME280;23859;50.672;7.164;2023-05-02T08:58:09;59572.34;;;14.43;97.20
38054;BME280;23859;50.672;7.164;2023-05-02T09:00:40;59588.78;;;14.65;94.29
38054;BME280;23859;50.672;7.164;2023-05-02T09:03:19;59585.06;;;14.51;95.27
38054;BME280;23859;50.672;7.164;2023-05-02T09:05:52;59567.91;;;14.39;94.45
38054;BME280;23859;50.672;7.164;2023-05-02T09:08:23;59537.13;;;14.10;93.31
38054;BME280;23859;50.672;7.164;2023-05-02T09:10:50;59499.44;;;13.67;95.11
38054;BME280;23859;50.672;7.164;2023-05-02T09:13:39;59479.19;;;13.55;96.72
38054;BME280;23859;50.672;7.164;2023-05-02T09:16:09;59467.19;;;13.37;99.18
38054;BME280;23859;50.672;7.164;2023-05-02T09:18:37;59464.88;;;13.40;98.21
38054;BME280;23859;50.672;7.164;2023-05-02T09:21:11;59471.47;;;13.44;98.37
38054;BME280;23859;50.672;7.164;2023-05-02T09:23:43;59493.34;;;13.64;97.00
38054;BME280;23859;50.672;7.164;2023-05-02T09:26:17;59484.47;;;13.55;97.57
38054;BME280;23859;50.672;7.164;2023-05-02T09:28:44;59503.88;;;13.72;96.41
38054;BME280;23859;50.672;7.164;2023-05-02T09:31:13;59512.09;;;13.83;94.70
38054;BME280;23859;50.672;7.164;2023-05-02T09:33:39;59519.00;;;13.90;94.77
38054;BME280;23859;50.672;7.164;2023-05-02T09:36:07;59516.19;;;13.92;94.40
38054;BME280;23859;50.672;7.164;2023-05-02T09:38:33;59520.00;;;13.91;93.79
38054;BME280;23859;50.672;7.164;2023-05-02T09:41:00;59502.38;;;13.78;96.39
38054;BME280;23859;50.672;7.164;2023-05-02T09:43:28;59500.88;;;13.77;97.09
38054;BME280;23859;50.672;7.164;2023-05-02T09:45:59;59496.13;;;13.69;96.70
38054;BME280;23859;50.672;7.164;2023-05-02T09:48:27;59518.84;;;13.92;95.63
38054;BME280;23859;50.672;7.164;2023-05-02T09:50:53;59532.19;;;13.97;94.41
38054;BME280;23859;50.672;7.164;2023-05-02T09:53:20;59549.81;;;14.18;93.76
38054;BME280;23859;50.672;7.164;2023-05-02T09:55:46;59590.13;;;14.61;90.81
38054;BME280;23859;50.672;7.164;2023-05-02T09:58:22;59644.47;;;15.16;88.93
38054;BME280;23859;50.672;7.164;2023-05-02T10:00:49;59688.00;;;15.59;86.88
38054;BME280;23859;50.672;7.164;2023-05-02T10:03:19;59700.84;;;15.72;86.35
38054;BME280;23859;50.672;7.164;2023-05-02T10:05:48;59692.94;;;15.64;86.41
38054;BME280;23859;50.672;7.164;2023-05-02T10:08:17;59677.59;;;15.49;84.66
38054;BME280;23859;50.672;7.164;2023-05-02T10:10:49;59652.53;;;15.29;86.80
38054;BME280;23859;50.672;7.164;2023-05-02T10:13:18;59634.41;;;15.08;85.54
38054;BME280;23859;50.672;7.164;2023-05-02T10:15:48;59591.75;;;14.68;87.03
38054;BME280;23859;50.672;7.164;2023-05-02T10:18:25;59569.56;;;14.38;86.88
38054;BME280;23859;50.672;7.164;2023-05-02T10:21:04;59541.06;;;14.14;88.64
38054;BME280;23859;50.672;7.164;2023-05-02T10:23:33;59531.34;;;14.02;88.81
38054;BME280;23859;50.672;7.164;2023-05-02T10:25:59;59520.78;;;13.94;87.36
38054;BME280;23859;50.672;7.164;2023-05-02T10:28:26;59498.59;;;13.72;91.15
38054;BME280;23859;50.672;7.164;2023-05-02T10:30:53;59497.78;;;13.68;89.68
38054;BME280;23859;50.672;7.164;2023-05-02T10:33:21;59500.06;;;13.73;89.75
38054;BME280;23859;50.672;7.164;2023-05-02T10:35:48;59514.25;;;13.82;90.56
38054;BME280;23859;50.672;7.164;2023-05-02T10:38:19;59519.16;;;13.95;86.99
38054;BME280;23859;50.672;7.164;2023-05-02T10:40:55;59530.88;;;14.01;87.22
38054;BME280;23859;50.672;7.164;2023-05-02T10:43:29;59525.72;;;13.99;86.00
38054;BME280;23859;50.672;7.164;2023-05-02T10:45:57;59542.53;;;14.16;85.58
38054;BME280;23859;50.672;7.164;2023-05-02T10:48:25;59537.28;;;14.08;86.23
38054;BME280;23859;50.672;7.164;2023-05-02T10:50:56;59554.38;;;14.28;84.22
38054;BME280;23859;50.672;7.164;2023-05-02T10:53:38;59596.06;;;14.67;83.32
38054;BME280;23859;50.672;7.164;2023-05-02T10:56:15;59622.25;;;14.93;82.39
38054;BME280;23859;50.672;7.164;2023-05-02T10:58:45;59675.28;;;15.52;79.39
38054;BME280;23859;50.672;7.164;2023-05-02T11:03:55;59639.34;;;15.13;79.45
38054;BME280;23859;50.672;7.164;2023-05-02T11:06:22;59620.59;;;14.94;78.97
38054;BME280;23859;50.672;7.164;2023-05-02T11:08:49;59626.81;;;15.03;79.54
38054;BME280;23859;50.672;7.164;2023-05-02T11:11:42;59564.59;;;14.41;78.50
38054;BME280;23859;50.672;7.164;2023-05-02T11:14:09;59671.69;;;15.43;78.94
38054;BME280;23859;50.672;7.164;2023-05-02T11:19:24;59764.81;;;16.42;75.16
38054;BME280;23859;50.672;7.164;2023-05-02T11:21:51;59797.03;;;16.66;71.86
38054;BME280;23859;50.672;7.164;2023-05-02T11:30:07;59781.69;;;16.51;71.79
38054;BME280;23859;50.672;7.164;2023-05-02T11:35:23;59742.22;;;16.16;73.55
38054;BME280;23859;50.672;7.164;2023-05-02T11:37:58;59723.75;;;16.00;73.46
38054;BME280;23859;50.672;7.164;2023-05-02T11:40:25;59739.56;;;16.16;70.97
38054;BME280;23859;50.672;7.164;2023-05-02T11:42:52;59713.03;;;15.87;73.97
38054;BME280;23859;50.672;7.164;2023-05-02T11:45:18;59713.22;;;15.85;73.26
38054;BME280;23859;50.672;7.164;2023-05-02T11:47:50;59717.84;;;15.87;72.73
38054;BME280;23859;50.672;7.164;2023-05-02T11:50:17;59703.63;;;15.78;72.37
38054;BME280;23859;50.672;7.164;2023-05-02T11:52:44;59721.56;;;16.01;71.65
38054;BME280;23859;50.672;7.164;2023-05-02T11:55:13;59717.81;;;15.95;72.62
38054;BME280;23859;50.672;7.164;2023-05-02T11:57:40;59747.16;;;16.21;72.81
38054;BME280;23859;50.672;7.164;2023-05-02T12:00:07;59796.97;;;16.74;69.92
38054;BME280;23859;50.672;7.164;2023-05-02T12:02:39;59841.22;;;17.16;67.87
38054;BME280;23859;50.672;7.164;2023-05-02T12:05:10;59889.97;;;17.62;65.00
38054;BME280;23859;50.672;7.164;2023-05-02T12:07:44;59887.13;;;17.64;65.55
38054;BME280;23859;50.672;7.164;2023-05-02T12:10:11;59870.66;;;17.42;65.20
38054;BME280;23859;50.672;7.164;2023-05-02T12:12:38;59829.66;;;17.07;65.33
38054;BME280;23859;50.672;7.164;2023-05-02T12:15:06;59813.44;;;16.96;65.56
38054;BME280;23859;50.672;7.164;2023-05-02T12:17:40;59796.84;;;16.68;65.29
38054;BME280;23859;50.672;7.164;2023-05-02T12:20:09;59732.97;;;16.12;69.11
38054;BME280;23859;50.672;7.164;2023-05-02T12:22:35;59720.13;;;15.92;67.01
38054;BME280;23859;50.672;7.164;2023-05-02T12:25:05;59768.97;;;16.43;67.85
38054;BME280;23859;50.672;7.164;2023-05-02T12:27:31;59797.66;;;16.72;65.10
38054;BME280;23859;50.672;7.164;2023-05-02T12:29:58;59823.72;;;17.01;65.45
38054;BME280;23859;50.672;7.164;2023-05-02T12:32:30;59815.13;;;16.95;64.77
38054;BME280;23859;50.672;7.164;2023-05-02T12:34:57;59869.66;;;17.41;64.70
38054;BME280;23859;50.672;7.164;2023-05-02T12:37:24;59891.44;;;17.63;63.14
38054;BME280;23859;50.672;7.164;2023-05-02T12:39:52;59914.56;;;17.89;62.79
38054;BME280;23859;50.672;7.164;2023-05-02T12:42:23;59908.94;;;17.86;62.77
38054;BME280;23859;50.672;7.164;2023-05-02T12:44:51;59836.09;;;17.13;63.87
38054;BME280;23859;50.672;7.164;2023-05-02T12:47:17;59825.06;;;16.97;64.96
38054;BME280;23859;50.672;7.164;2023-05-02T12:50:02;59816.84;;;16.86;65.57
38054;BME280;23859;50.672;7.164;2023-05-02T12:52:50;59785.97;;;16.58;66.99
38054;BME280;23859;50.672;7.164;2023-05-02T12:55:21;59806.25;;;16.78;66.89
38054;BME280;23859;50.672;7.164;2023-05-02T13:00:25;59748.66;;;16.23;63.55
38054;BME280;23859;50.672;7.164;2023-05-02T13:02:51;59849.16;;;17.24;64.09
38054;BME280;23859;50.672;7.164;2023-05-02T13:05:19;59877.78;;;17.47;64.13
38054;BME280;23859;50.672;7.164;2023-05-02T13:07:46;59898.22;;;17.73;61.74
38054;BME280;23859;50.672;7.164;2023-05-02T13:10:12;59913.88;;;17.91;60.36
38054;BME280;23859;50.672;7.164;2023-05-02T13:12:38;59900.81;;;17.81;61.10
38054;BME280;23859;50.672;7.164;2023-05-02T13:15:06;59894.25;;;17.69;61.81
38054;BME280;23859;50.672;7.164;2023-05-02T13:17:33;59904.97;;;17.82;60.45
38054;BME280;23859;50.672;7.164;2023-05-02T13:19:59;59856.09;;;17.31;58.28
38054;BME280;23859;50.672;7.164;2023-05-02T13:22:26;59932.22;;;18.09;59.62
38054;BME280;23859;50.672;7.164;2023-05-02T13:24:53;59911.91;;;17.89;59.49
38054;BME280;23859;50.672;7.164;2023-05-02T13:27:21;59897.97;;;17.83;60.21
38054;BME280;23859;50.672;7.164;2023-05-02T13:29:50;59906.94;;;17.84;58.76
38054;BME280;23859;50.672;7.164;2023-05-02T13:32:17;59911.28;;;17.83;57.94
38054;BME280;23859;50.672;7.164;2023-05-02T13:34:43;59887.63;;;17.65;57.89
38054;BME280;23859;50.672;7.164;2023-05-02T13:37:09;59900.00;;;17.77;59.45
38054;BME280;23859;50.672;7.164;2023-05-02T13:39:35;59895.44;;;17.67;59.54
38054;BME280;23859;50.672;7.164;2023-05-02T13:42:02;59900.63;;;17.83;57.13
38054;BME280;23859;50.672;7.164;2023-05-02T13:44:29;59903.34;;;17.75;54.30